Time;durP1;ratioP1;P1;durP2;ratioP2;P2;SDS_P1;SDS_P2;PMS_P1;PMS_P2;Temp;Humidity;BMP_temperature;BMP_pressure;BME280_temperature;BME280_humidity;BME280_pressure;Samples;Min_cycle;Max_cycle;Signal;HPM_P1;HPM_P2
2022/11/14 00:00:09;;;;;;;13.52;5.38;;;7.20;99.90;;;;;;5043176;28;20033;-72
2022/11/14 00:02:35;;;;;;;18.30;6.00;;;7.20;99.90;;;;;;5042308;28;20486;-72
2022/11/14 00:05:01;;;;;;;13.15;5.00;;;7.20;99.90;;;;;;5041313;28;20033;-72
2022/11/14 00:07:30;;;;;;;13.00;5.45;;;7.20;99.90;;;;;;5044521;28;20567;-72
2022/11/14 00:09:56;;;;;;;13.40;5.05;;;7.20;99.90;;;;;;5043180;28;20534;-72
2022/11/14 00:12:22;;;;;;;15.30;6.60;;;7.20;99.90;;;;;;5060040;28;20045;-72
2022/11/14 00:14:47;;;;;;;18.65;6.88;;;7.20;99.90;;;;;;5041042;28;20041;-72
2022/11/14 00:17:13;;;;;;;12.65;5.75;;;7.30;99.90;;;;;;5041933;28;20029;-72
2022/11/14 00:19:38;;;;;;;15.60;7.18;;;7.20;99.90;;;;;;5025156;28;20041;-72
2022/11/14 00:22:04;;;;;;;15.88;6.35;;;7.30;99.90;;;;;;5028572;28;20044;-72
2022/11/14 00:24:30;;;;;;;15.40;6.05;;;7.30;99.90;;;;;;5042529;28;20033;-72
2022/11/14 00:26:55;;;;;;;11.88;5.57;;;7.30;99.90;;;;;;5044623;28;20448;-72
2022/11/14 00:29:21;;;;;;;15.27;6.22;;;7.30;99.90;;;;;;5040400;28;20036;-72
2022/11/14 00:31:46;;;;;;;14.40;5.45;;;7.30;99.90;;;;;;5044567;28;20529;-72
2022/11/14 00:34:12;;;;;;;15.32;6.38;;;7.30;99.90;;;;;;5044531;28;20099;-72
2022/11/14 00:36:38;;;;;;;17.02;6.53;;;7.30;99.90;;;;;;5044112;28;20041;-72
2022/11/14 00:39:03;;;;;;;14.48;5.82;;;7.30;99.90;;;;;;5039854;28;20037;-72
2022/11/14 00:41:29;;;;;;;17.70;6.00;;;7.40;99.90;;;;;;5042554;28;20143;-72
2022/11/14 00:43:54;;;;;;;17.67;6.70;;;7.40;99.90;;;;;;5043664;28;20029;-72
2022/11/14 00:46:20;;;;;;;17.77;5.70;;;7.40;99.90;;;;;;5042512;28;20033;-72
2022/11/14 00:48:46;;;;;;;15.88;6.13;;;7.40;99.90;;;;;;5039196;28;20040;-72
2022/11/14 00:51:11;;;;;;;11.85;6.68;;;7.30;99.90;;;;;;5042455;28;20040;-72
2022/11/14 00:53:38;;;;;;;15.13;6.55;;;7.40;99.90;;;;;;5042041;28;20412;-72
2022/11/14 00:56:04;;;;;;;14.90;5.97;;;7.40;99.90;;;;;;5042646;28;20036;-72
2022/11/14 00:58:29;;;;;;;17.35;6.78;;;7.40;99.90;;;;;;5025232;28;20056;-72
2022/11/14 01:00:55;;;;;;;13.43;5.60;;;7.40;99.90;;;;;;5043977;28;20045;-72
2022/11/14 01:03:21;;;;;;;15.27;6.38;;;7.40;99.90;;;;;;5041141;28;20037;-72
2022/11/14 01:05:49;;;;;;;17.33;8.00;;;7.40;99.90;;;;;;5043107;28;20032;-72
2022/11/14 01:08:16;;;;;;;16.15;6.90;;;7.40;99.90;;;;;;5037873;28;20041;-72
2022/11/14 01:10:45;;;;;;;19.90;6.88;;;7.40;99.90;;;;;;5039795;28;20049;-72
2022/11/14 01:13:11;;;;;;;17.63;8.18;;;7.40;99.90;;;;;;5041148;28;20044;-72
2022/11/14 01:15:39;;;;;;;18.73;7.38;;;7.40;99.90;;;;;;5042641;28;20076;-72
2022/11/14 01:18:05;;;;;;;17.48;6.45;;;7.30;99.90;;;;;;5024694;28;20036;-72
2022/11/14 01:20:30;;;;;;;18.92;8.32;;;7.30;99.90;;;;;;5041397;28;20032;-72
2022/11/14 01:22:56;;;;;;;21.85;7.63;;;7.30;99.90;;;;;;5042775;28;20036;-72
2022/11/14 01:25:21;;;;;;;22.27;7.85;;;7.30;99.90;;;;;;5042377;28;20630;-72
2022/11/14 01:27:47;;;;;;;21.83;8.75;;;7.30;99.90;;;;;;5042508;28;20048;-72
2022/11/14 01:30:13;;;;;;;21.52;7.25;;;7.30;99.90;;;;;;5043167;28;20044;-72
2022/11/14 01:32:39;;;;;;;20.67;8.27;;;7.30;99.90;;;;;;5043101;28;20486;-72
2022/11/14 01:35:04;;;;;;;19.50;7.50;;;7.30;99.90;;;;;;5043049;28;20102;-72
2022/11/14 01:37:30;;;;;;;26.65;9.32;;;7.30;99.90;;;;;;5041121;28;20040;-72
2022/11/14 01:39:55;;;;;;;18.35;7.18;;;7.30;99.90;;;;;;5033537;28;20048;-72
2022/11/14 01:42:21;;;;;;;20.20;8.20;;;7.20;99.90;;;;;;5041171;28;20033;-72
2022/11/14 01:44:51;;;;;;;22.90;8.25;;;7.20;99.90;;;;;;5043310;28;20041;-72
2022/11/14 01:47:21;;;;;;;23.30;8.75;;;7.20;99.90;;;;;;5025358;28;20075;-72
2022/11/14 01:49:51;;;;;;;23.60;8.63;;;7.20;99.90;;;;;;5039128;28;20076;-72
2022/11/14 01:52:21;;;;;;;17.20;7.45;;;7.20;99.90;;;;;;5041624;28;20048;-72
2022/11/14 01:54:56;;;;;;;23.38;8.98;;;7.20;99.90;;;;;;5042432;28;20442;-72
2022/11/14 01:57:29;;;;;;;27.23;10.10;;;7.20;99.90;;;;;;5041900;28;20509;-72
2022/11/14 02:00:00;;;;;;;18.13;8.75;;;7.20;99.90;;;;;;5023562;28;20131;-72
2022/11/14 02:02:25;;;;;;;23.38;8.77;;;7.20;99.90;;;;;;5042869;28;20135;-71
2022/11/14 02:05:01;;;;;;;22.52;8.73;;;7.20;99.90;;;;;;5026252;28;20123;-72
2022/11/14 02:07:30;;;;;;;19.20;7.88;;;7.20;99.90;;;;;;5041844;28;20501;-72
2022/11/14 02:10:00;;;;;;;20.73;8.13;;;7.20;99.90;;;;;;5023078;28;20071;-72
2022/11/14 02:12:25;;;;;;;21.52;8.80;;;7.20;99.90;;;;;;5040753;28;20041;-72
2022/11/14 02:14:54;;;;;;;24.13;10.23;;;7.10;99.90;;;;;;5038266;28;20037;-71
2022/11/14 02:17:20;;;;;;;24.58;9.30;;;7.10;99.90;;;;;;5025407;28;20041;-72
2022/11/14 02:20:10;;;;;;;27.85;11.30;;;7.10;99.90;;;;;;5040884;28;20060;-72
2022/11/14 02:22:39;;;;;;;22.75;9.43;;;7.00;99.90;;;;;;5041818;28;20722;-72
2022/11/14 02:25:07;;;;;;;23.00;9.45;;;7.10;99.90;;;;;;5039263;28;20494;-71
2022/11/14 02:27:33;;;;;;;24.20;9.70;;;7.10;99.90;;;;;;5040099;28;20060;-72
2022/11/14 02:30:09;;;;;;;21.10;8.30;;;7.00;99.90;;;;;;5037255;28;20047;-72
2022/11/14 02:32:34;;;;;;;22.38;9.90;;;7.00;99.90;;;;;;5039056;28;20120;-72
2022/11/14 02:35:00;;;;;;;22.02;7.95;;;7.10;99.90;;;;;;5037159;28;20494;-72
2022/11/14 02:37:25;;;;;;;20.60;8.02;;;7.10;99.90;;;;;;5035700;28;20054;-72
2022/11/14 02:39:51;;;;;;;20.27;9.30;;;7.10;99.90;;;;;;5048681;28;20879;-72
2022/11/14 02:42:17;;;;;;;21.77;9.63;;;7.10;99.90;;;;;;5039169;28;20048;-72
2022/11/14 02:44:42;;;;;;;24.80;9.40;;;7.10;99.90;;;;;;5038644;28;20429;-72
2022/11/14 02:47:08;;;;;;;20.13;8.77;;;7.10;99.90;;;;;;5022577;28;20029;-72
2022/11/14 02:49:33;;;;;;;25.48;8.98;;;7.10;99.90;;;;;;5041226;28;20646;-72
2022/11/14 02:51:59;;;;;;;23.52;8.82;;;7.10;99.90;;;;;;5037434;28;20041;-71
2022/11/14 02:54:25;;;;;;;18.50;7.43;;;7.10;99.90;;;;;;5019814;28;20045;-72
2022/11/14 02:56:50;;;;;;;27.13;10.00;;;7.10;99.90;;;;;;5022941;28;20072;-72
2022/11/14 02:59:16;;;;;;;26.58;9.38;;;7.10;99.90;;;;;;5039913;28;20508;-72
2022/11/14 03:01:41;;;;;;;28.58;9.23;;;7.10;99.90;;;;;;5034406;28;20033;-72
2022/11/14 03:04:07;;;;;;;19.08;8.50;;;7.10;99.90;;;;;;5034568;28;20048;-72
2022/11/14 03:06:33;;;;;;;26.80;10.98;;;7.10;99.90;;;;;;5035623;28;20041;-72
2022/11/14 03:08:58;;;;;;;23.65;8.90;;;7.10;99.90;;;;;;5021038;28;20763;-72
2022/11/14 03:11:24;;;;;;;26.23;10.48;;;7.10;99.90;;;;;;5038183;28;20055;-72
2022/11/14 03:13:50;;;;;;;21.23;8.23;;;7.10;99.90;;;;;;5021681;28;20037;-72
2022/11/14 03:16:15;;;;;;;24.67;9.38;;;7.10;99.90;;;;;;5037857;28;20136;-72
2022/11/14 03:18:41;;;;;;;23.88;9.65;;;7.20;99.90;;;;;;5038196;28;20051;-72
2022/11/14 03:21:13;;;;;;;24.90;10.07;;;7.20;99.90;;;;;;5022178;28;20037;-71
2022/11/14 03:23:39;;;;;;;22.08;8.60;;;7.20;99.90;;;;;;5036674;28;20040;-71
2022/11/14 03:26:07;;;;;;;21.75;8.82;;;7.20;99.90;;;;;;5036526;28;20107;-72
2022/11/14 03:28:34;;;;;;;26.90;8.65;;;7.10;99.90;;;;;;5043217;28;20489;-72
2022/11/14 03:30:59;;;;;;;28.25;10.73;;;7.20;99.90;;;;;;5038343;28;20490;-72
2022/11/14 03:33:25;;;;;;;26.85;9.00;;;7.10;99.90;;;;;;5035522;28;20040;-72
2022/11/14 03:35:51;;;;;;;19.33;8.80;;;7.10;99.90;;;;;;5032919;28;20045;-71
2022/11/14 03:38:17;;;;;;;27.85;8.88;;;7.10;99.90;;;;;;5034730;28;20099;-72
2022/11/14 03:40:43;;;;;;;22.92;9.48;;;7.10;99.90;;;;;;5037959;28;20033;-72
2022/11/14 03:43:09;;;;;;;18.83;7.40;;;7.10;99.90;;;;;;5037468;28;20029;-72
2022/11/14 03:45:37;;;;;;;23.70;10.13;;;7.10;99.90;;;;;;5018063;28;20057;-72
2022/11/14 03:48:04;;;;;;;25.35;9.73;;;7.10;99.90;;;;;;5036475;28;20123;-72
2022/11/14 03:50:30;;;;;;;23.45;9.18;;;7.10;99.90;;;;;;5039922;28;20502;-72
2022/11/14 03:52:55;;;;;;;27.42;9.07;;;7.10;99.90;;;;;;5032201;28;20065;-72
2022/11/14 03:55:21;;;;;;;24.13;9.70;;;7.10;99.90;;;;;;5039121;28;20134;-72
2022/11/14 03:57:46;;;;;;;22.90;9.27;;;7.10;99.90;;;;;;5038185;28;20041;-72
2022/11/14 04:00:12;;;;;;;19.77;8.43;;;7.10;99.90;;;;;;5041503;28;20056;-72
2022/11/14 04:02:38;;;;;;;21.83;8.70;;;7.10;99.90;;;;;;5035317;28;20029;-72
2022/11/14 04:05:03;;;;;;;19.65;8.45;;;7.10;99.90;;;;;;5038449;28;20579;-72
2022/11/14 04:07:29;;;;;;;21.50;9.13;;;7.10;99.90;;;;;;5035956;28;20593;-72
2022/11/14 04:09:55;;;;;;;25.13;8.43;;;7.10;99.90;;;;;;5034095;28;20033;-72
2022/11/14 04:12:20;;;;;;;18.52;9.27;;;7.10;99.90;;;;;;5032291;28;20720;-72
2022/11/14 04:14:46;;;;;;;21.55;8.57;;;7.10;99.90;;;;;;5036135;28;20075;-72
2022/11/14 04:17:11;;;;;;;22.48;9.63;;;7.10;99.90;;;;;;5035394;28;20078;-72
2022/11/14 04:19:37;;;;;;;20.33;8.23;;;7.10;99.90;;;;;;5039906;28;20052;-72
2022/11/14 04:22:02;;;;;;;20.95;9.63;;;7.10;99.90;;;;;;5035360;28;20044;-72
2022/11/14 04:24:28;;;;;;;21.30;9.30;;;7.10;99.90;;;;;;5034368;28;20491;-72
2022/11/14 04:26:54;;;;;;;18.42;8.68;;;7.10;99.90;;;;;;5031870;28;20033;-72
2022/11/14 04:29:19;;;;;;;22.08;8.82;;;7.10;99.90;;;;;;5036607;28;20037;-72
2022/11/14 04:31:45;;;;;;;24.30;10.25;;;7.10;99.90;;;;;;5036868;28;20037;-72
2022/11/14 04:34:11;;;;;;;20.30;8.43;;;7.10;99.90;;;;;;5038294;28;20044;-72
2022/11/14 04:36:36;;;;;;;25.15;10.20;;;7.10;99.90;;;;;;5033027;28;20102;-72
2022/11/14 04:39:02;;;;;;;23.33;9.75;;;7.10;99.90;;;;;;5036288;28;20049;-72
2022/11/14 04:41:28;;;;;;;23.88;9.98;;;7.10;99.90;;;;;;5034290;28;20102;-72
2022/11/14 04:43:53;;;;;;;21.48;8.35;;;7.10;99.90;;;;;;5037350;28;20063;-72
2022/11/14 04:46:19;;;;;;;26.65;9.27;;;7.10;99.90;;;;;;5033827;28;20057;-72
2022/11/14 04:48:44;;;;;;;23.73;7.75;;;7.10;99.90;;;;;;5039465;28;20072;-72
2022/11/14 04:51:10;;;;;;;28.85;10.55;;;7.10;99.90;;;;;;5036319;28;20076;-72
2022/11/14 04:53:35;;;;;;;26.17;10.23;;;7.10;99.90;;;;;;5033809;28;20045;-72
2022/11/14 04:56:01;;;;;;;20.98;8.50;;;7.10;99.90;;;;;;5035093;28;21541;-72
2022/11/14 04:58:27;;;;;;;20.75;8.23;;;7.10;99.90;;;;;;5033848;28;20284;-73
2022/11/14 05:00:52;;;;;;;23.27;9.48;;;7.10;99.90;;;;;;5036403;28;20098;-72
2022/11/14 05:03:18;;;;;;;25.83;9.88;;;7.00;99.90;;;;;;5038215;28;20033;-72
2022/11/14 05:05:44;;;;;;;23.27;8.30;;;7.10;99.90;;;;;;5034914;28;20707;-72
2022/11/14 05:08:09;;;;;;;24.50;9.85;;;7.10;99.90;;;;;;5035674;28;20033;-72
2022/11/14 05:10:35;;;;;;;23.35;9.70;;;7.10;99.90;;;;;;5018073;28;20483;-72
2022/11/14 05:13:00;;;;;;;22.20;9.27;;;7.10;99.90;;;;;;5038116;28;20042;-72
2022/11/14 05:15:26;;;;;;;22.67;8.52;;;7.10;99.90;;;;;;5032443;28;20090;-72
2022/11/14 05:17:51;;;;;;;19.15;8.98;;;7.10;99.90;;;;;;5034521;28;20047;-72
2022/11/14 05:20:17;;;;;;;20.13;9.38;;;7.10;99.90;;;;;;5018801;28;20044;-72
2022/11/14 05:22:43;;;;;;;20.10;8.35;;;7.20;99.90;;;;;;5020260;28;20034;-72
2022/11/14 05:25:09;;;;;;;21.92;9.93;;;7.10;99.90;;;;;;5031927;28;20034;-72
2022/11/14 05:27:34;;;;;;;23.95;9.13;;;7.10;99.90;;;;;;5022715;28;20067;-72
2022/11/14 05:30:00;;;;;;;23.77;9.48;;;7.20;99.90;;;;;;5019318;28;20049;-72
2022/11/14 05:32:25;;;;;;;26.40;8.55;;;7.20;99.90;;;;;;5039893;28;20099;-72
2022/11/14 05:34:51;;;;;;;22.33;9.38;;;7.20;99.90;;;;;;5035386;28;20063;-72
2022/11/14 05:37:17;;;;;;;20.33;8.55;;;7.20;99.90;;;;;;5033227;28;20044;-72
2022/11/14 05:39:42;;;;;;;21.75;7.82;;;7.10;99.90;;;;;;5033576;28;20110;-73
2022/11/14 05:42:08;;;;;;;24.17;9.48;;;7.10;99.90;;;;;;5034908;28;20033;-72
2022/11/14 05:44:33;;;;;;;20.50;7.78;;;7.10;99.90;;;;;;5035545;28;20047;-72
2022/11/14 05:46:59;;;;;;;19.58;8.20;;;7.10;99.90;;;;;;5034012;28;20044;-72
2022/11/14 05:49:24;;;;;;;30.33;10.15;;;7.10;99.90;;;;;;5018238;28;20091;-72
2022/11/14 05:51:50;;;;;;;22.10;9.63;;;7.10;99.90;;;;;;5033068;28;20056;-72
2022/11/14 05:54:15;;;;;;;22.08;8.80;;;7.10;99.90;;;;;;5033020;28;20040;-72
2022/11/14 05:56:41;;;;;;;21.42;8.75;;;7.10;99.90;;;;;;5035183;28;20115;-72
2022/11/14 05:59:06;;;;;;;23.08;8.75;;;7.10;99.90;;;;;;5017876;28;20091;-72
2022/11/14 06:01:32;;;;;;;21.60;8.68;;;7.10;99.90;;;;;;5033842;28;20103;-72
2022/11/14 06:03:58;;;;;;;25.85;9.05;;;7.10;99.90;;;;;;5031429;28;20045;-72
2022/11/14 06:06:23;;;;;;;22.30;8.93;;;7.00;99.90;;;;;;5016511;28;20041;-72
2022/11/14 06:08:49;;;;;;;22.63;9.15;;;7.10;99.90;;;;;;5037499;28;20040;-72
2022/11/14 06:11:18;;;;;;;20.92;9.60;;;7.00;99.90;;;;;;5023713;28;20057;-72
2022/11/14 06:13:45;;;;;;;25.50;9.05;;;7.00;99.90;;;;;;5018774;28;20040;-72
2022/11/14 06:16:18;;;;;;;24.80;9.35;;;7.00;99.90;;;;;;5021332;28;20053;-72
2022/11/14 06:18:44;;;;;;;20.35;9.25;;;7.00;99.90;;;;;;5039691;28;20060;-72
2022/11/14 06:21:13;;;;;;;26.17;10.23;;;7.00;99.90;;;;;;5037631;28;20241;-72
2022/11/14 06:23:39;;;;;;;24.77;8.63;;;7.00;99.90;;;;;;5035949;28;20742;-72
2022/11/14 06:26:08;;;;;;;20.38;8.68;;;7.00;99.90;;;;;;5038832;28;20029;-72
2022/11/14 06:28:34;;;;;;;24.77;7.70;;;7.00;99.90;;;;;;5040679;28;20175;-72
2022/11/14 06:31:02;;;;;;;29.75;9.48;;;7.00;99.90;;;;;;5033174;28;20144;-72
2022/11/14 06:33:32;;;;;;;24.23;9.88;;;7.00;99.90;;;;;;5037879;28;20052;-72
2022/11/14 06:35:59;;;;;;;31.10;10.10;;;7.00;99.90;;;;;;5022016;28;20048;-72
2022/11/14 06:38:25;;;;;;;28.38;10.73;;;7.00;99.90;;;;;;5055430;28;20659;-72
2022/11/14 06:40:51;;;;;;;23.33;10.00;;;7.00;99.90;;;;;;5037871;28;20040;-72
2022/11/14 06:43:16;;;;;;;28.70;10.77;;;7.00;99.90;;;;;;5022144;28;20090;-72
2022/11/14 06:45:42;;;;;;;30.00;10.75;;;7.00;99.90;;;;;;5037543;28;20069;-72
2022/11/14 06:48:07;;;;;;;23.45;9.95;;;7.00;99.90;;;;;;5036651;28;20041;-72
2022/11/14 06:50:33;;;;;;;29.08;9.57;;;7.00;99.90;;;;;;5040027;28;20064;-72
2022/11/14 06:52:59;;;;;;;21.58;8.45;;;7.00;99.90;;;;;;5032738;28;20040;-72
2022/11/14 06:55:24;;;;;;;25.50;9.40;;;7.00;99.90;;;;;;5040098;28;20041;-72
2022/11/14 06:57:53;;;;;;;23.38;8.48;;;7.00;99.90;;;;;;5042449;28;20500;-72
2022/11/14 07:00:20;;;;;;;23.35;9.55;;;7.00;99.90;;;;;;5037517;28;22021;-72
2022/11/14 07:02:46;;;;;;;29.67;10.00;;;7.00;99.90;;;;;;5034307;28;20044;-72
2022/11/14 07:05:12;;;;;;;29.95;10.40;;;6.90;99.90;;;;;;5033280;28;20666;-72
2022/11/14 07:07:37;;;;;;;26.17;8.48;;;7.00;99.90;;;;;;5040374;28;20041;-72
2022/11/14 07:10:03;;;;;;;23.90;9.65;;;7.00;99.90;;;;;;5036221;28;20434;-72
2022/11/14 07:12:29;;;;;;;23.90;8.18;;;6.90;99.90;;;;;;5018951;28;20048;-72
2022/11/14 07:14:54;;;;;;;26.20;11.00;;;6.90;99.90;;;;;;5051391;28;20468;-72
2022/11/14 07:17:20;;;;;;;23.80;10.52;;;6.90;99.90;;;;;;5020098;28;20037;-72
2022/11/14 07:19:46;;;;;;;28.75;9.90;;;6.90;99.90;;;;;;5035473;28;20051;-72
2022/11/14 07:22:11;;;;;;;24.35;8.32;;;6.80;99.90;;;;;;5035847;28;20037;-72
2022/11/14 07:24:37;;;;;;;23.88;9.40;;;6.80;99.90;;;;;;5055098;28;20119;-72
2022/11/14 07:27:07;;;;;;;25.95;9.32;;;6.80;99.90;;;;;;5040302;28;20033;-72
2022/11/14 07:29:33;;;;;;;25.98;10.43;;;6.80;99.90;;;;;;5035103;28;20083;-72
2022/11/14 07:31:58;;;;;;;24.08;10.10;;;6.80;99.90;;;;;;5036642;28;20065;-72
2022/11/14 07:34:24;;;;;;;27.35;9.25;;;6.80;99.90;;;;;;5038559;28;21164;-72
2022/11/14 07:36:49;;;;;;;26.10;10.27;;;6.80;99.90;;;;;;5036266;28;20040;-72
2022/11/14 07:39:15;;;;;;;29.63;9.57;;;6.80;99.90;;;;;;5055108;28;20490;-72
2022/11/14 07:41:41;;;;;;;23.40;9.20;;;6.80;99.90;;;;;;5036694;28;20029;-72
2022/11/14 07:44:06;;;;;;;25.63;9.70;;;6.80;99.90;;;;;;5020718;28;20043;-72
2022/11/14 07:46:32;;;;;;;23.17;8.35;;;6.80;99.90;;;;;;5040786;28;20032;-72
2022/11/14 07:48:57;;;;;;;23.00;9.07;;;6.80;99.90;;;;;;5034671;28;20043;-72
2022/11/14 07:51:23;;;;;;;24.15;8.82;;;6.80;99.90;;;;;;5038717;28;20067;-72
2022/11/14 07:53:52;;;;;;;20.65;9.25;;;6.80;99.90;;;;;;5035558;28;20437;-72
2022/11/14 07:56:19;;;;;;;26.77;11.15;;;6.80;99.90;;;;;;5037144;28;20036;-72
2022/11/14 07:58:44;;;;;;;30.55;11.15;;;6.80;99.90;;;;;;5037026;28;20488;-72
2022/11/14 08:01:12;;;;;;;24.10;9.02;;;6.80;99.90;;;;;;5051388;28;20033;-72
2022/11/14 08:03:38;;;;;;;18.67;7.85;;;6.80;99.90;;;;;;5036618;28;20069;-72
2022/11/14 08:06:15;;;;;;;21.63;8.43;;;6.80;99.90;;;;;;5034021;28;20370;-72
2022/11/14 08:08:41;;;;;;;26.08;9.95;;;6.80;99.90;;;;;;5017698;28;20443;-72
2022/11/14 08:11:07;;;;;;;25.45;9.52;;;6.80;99.90;;;;;;5037291;28;20178;-72
2022/11/14 08:13:32;;;;;;;26.85;9.85;;;6.80;99.90;;;;;;5018766;28;20390;-72
2022/11/14 08:16:01;;;;;;;20.00;9.13;;;6.80;99.90;;;;;;5032005;28;20037;-72
2022/11/14 08:18:26;;;;;;;22.98;9.13;;;6.80;99.90;;;;;;5036189;28;20083;-72
2022/11/14 08:20:53;;;;;;;22.40;9.48;;;6.80;99.90;;;;;;5033612;28;20040;-73
2022/11/14 08:23:18;;;;;;;27.33;10.25;;;6.90;99.90;;;;;;5034197;28;20037;-73
2022/11/14 08:25:44;;;;;;;16.52;7.70;;;6.90;99.90;;;;;;5037536;28;20464;-73
2022/11/14 08:28:09;;;;;;;23.33;8.57;;;6.90;99.90;;;;;;5031694;28;20053;-72
2022/11/14 08:30:35;;;;;;;19.20;6.55;;;6.90;99.90;;;;;;5054086;28;20037;-72
2022/11/14 08:33:02;;;;;;;21.60;8.75;;;6.90;99.90;;;;;;5017398;28;20052;-74
2022/11/14 08:35:28;;;;;;;17.98;7.97;;;7.00;99.90;;;;;;5034513;28;20553;-72
2022/11/14 08:37:54;;;;;;;20.60;6.90;;;7.00;99.90;;;;;;5032164;28;20199;-72
2022/11/14 08:40:19;;;;;;;24.00;9.00;;;7.00;99.90;;;;;;5032510;28;20034;-72
2022/11/14 08:42:45;;;;;;;29.23;9.63;;;7.00;99.90;;;;;;5031822;28;20098;-72
2022/11/14 08:45:10;;;;;;;17.17;8.63;;;7.00;99.90;;;;;;5028931;28;20159;-72
2022/11/14 08:47:36;;;;;;;19.05;8.63;;;7.00;99.90;;;;;;5016631;28;20075;-72
2022/11/14 08:50:02;;;;;;;27.33;8.93;;;7.00;99.90;;;;;;5040821;28;20032;-72
2022/11/14 08:52:27;;;;;;;22.00;8.65;;;7.00;99.90;;;;;;5036880;28;20047;-72
2022/11/14 08:54:53;;;;;;;22.27;8.82;;;7.00;99.90;;;;;;5019276;28;20060;-72
2022/11/14 08:57:18;;;;;;;20.95;7.68;;;7.00;99.90;;;;;;5035847;28;20496;-72
2022/11/14 08:59:44;;;;;;;23.42;9.13;;;7.00;99.90;;;;;;5032680;28;20446;-72
2022/11/14 09:02:11;;;;;;;21.13;8.13;;;7.00;99.90;;;;;;5034169;28;20460;-72
2022/11/14 09:04:37;;;;;;;20.58;8.55;;;7.00;99.90;;;;;;5036263;28;22011;-72
2022/11/14 09:07:02;;;;;;;18.85;7.13;;;7.00;99.90;;;;;;5033504;28;20047;-72
2022/11/14 09:09:28;;;;;;;22.23;8.82;;;7.00;99.90;;;;;;5032581;28;20044;-72
2022/11/14 09:11:54;;;;;;;23.63;9.27;;;7.00;99.90;;;;;;5037573;28;20445;-72
2022/11/14 09:14:19;;;;;;;25.27;9.00;;;7.00;99.90;;;;;;5030275;28;20461;-72
2022/11/14 09:16:46;;;;;;;23.40;8.68;;;7.00;99.90;;;;;;5033528;28;20041;-72
2022/11/14 09:19:12;;;;;;;19.08;7.65;;;7.00;99.90;;;;;;5033742;28;20045;-72
2022/11/14 09:21:38;;;;;;;25.95;8.38;;;7.00;99.90;;;;;;5031973;28;20521;-72
2022/11/14 09:24:04;;;;;;;20.00;8.25;;;7.00;99.90;;;;;;5034239;28;20021;-72
2022/11/14 09:26:29;;;;;;;18.98;8.18;;;7.00;99.90;;;;;;5039066;28;20498;-72
2022/11/14 09:28:55;;;;;;;28.30;10.00;;;7.00;99.90;;;;;;5016847;28;20473;-72
2022/11/14 09:31:20;;;;;;;20.48;8.52;;;7.10;99.90;;;;;;5033690;28;20516;-72
2022/11/14 09:33:46;;;;;;;20.20;7.78;;;7.10;99.90;;;;;;5035309;28;20367;-72
2022/11/14 09:36:14;;;;;;;27.20;10.57;;;7.10;99.90;;;;;;5032318;28;20102;-72
2022/11/14 09:38:41;;;;;;;23.80;9.25;;;7.20;99.90;;;;;;5014941;28;20509;-72
2022/11/14 09:41:07;;;;;;;19.05;8.55;;;7.20;99.90;;;;;;5031541;28;20064;-72
2022/11/14 09:43:51;;;;;;;15.98;7.03;;;7.20;99.90;;;;;;5035259;28;20068;-73
2022/11/14 09:46:24;;;;;;;20.33;9.30;;;7.20;99.90;;;;;;5017513;28;20037;-72
2022/11/14 09:48:51;;;;;;;24.55;7.88;;;7.20;99.90;;;;;;5032127;28;20041;-72
2022/11/14 09:51:27;;;;;;;16.52;8.52;;;7.20;99.90;;;;;;5031076;28;20044;-72
2022/11/14 09:54:18;;;;;;;21.17;8.20;;;7.20;99.90;;;;;;5034331;28;20494;-72
2022/11/14 09:56:43;;;;;;;21.33;8.13;;;7.20;99.90;;;;;;5032567;28;20068;-72
2022/11/14 09:59:13;;;;;;;22.67;8.45;;;7.20;99.90;;;;;;5029461;28;20045;-72
2022/11/14 10:02:18;;;;;;;16.15;7.57;;;7.20;99.90;;;;;;5034329;28;20025;-72
2022/11/14 10:05:16;;;;;;;23.80;9.00;;;7.20;99.90;;;;;;5030598;28;20042;-72
2022/11/14 10:08:10;;;;;;;17.73;8.00;;;7.30;99.90;;;;;;5014868;28;20131;-72
2022/11/14 10:10:44;;;;;;;16.92;7.82;;;7.30;99.90;;;;;;5027418;28;20139;-72
2022/11/14 10:13:13;;;;;;;23.25;7.57;;;7.30;99.90;;;;;;5016266;28;20137;-72
2022/11/14 10:15:45;;;;;;;23.23;9.13;;;7.30;99.90;;;;;;5016039;28;20056;-72
2022/11/14 10:18:37;;;;;;;27.30;9.10;;;7.30;99.90;;;;;;5032183;28;20037;-72
2022/11/14 10:21:13;;;;;;;22.50;7.72;;;7.30;99.90;;;;;;5035833;28;20135;-72
2022/11/14 10:23:47;;;;;;;17.75;8.23;;;7.30;99.90;;;;;;5034986;28;20052;-72
2022/11/14 10:26:29;;;;;;;18.63;7.88;;;7.30;99.90;;;;;;5036058;28;20103;-72
2022/11/14 10:29:17;;;;;;;22.58;7.93;;;7.30;99.90;;;;;;5030603;28;20056;-72
2022/11/14 10:32:05;;;;;;;15.85;7.18;;;7.30;99.90;;;;;;5018102;28;20040;-72
2022/11/14 10:34:35;;;;;;;20.40;7.65;;;7.30;99.90;;;;;;5034506;28;20056;-72
2022/11/14 10:37:23;;;;;;;14.63;6.95;;;7.30;99.90;;;;;;5036403;28;20053;-72
2022/11/14 10:39:55;;;;;;;20.58;7.72;;;7.40;99.90;;;;;;5046743;28;20200;-72
2022/11/14 10:42:35;;;;;;;19.35;7.80;;;7.40;99.90;;;;;;5031268;28;20128;-72
2022/11/14 10:45:20;;;;;;;23.25;8.38;;;7.40;99.90;;;;;;5015220;28;20432;-72
2022/11/14 10:47:51;;;;;;;22.48;8.10;;;7.40;99.90;;;;;;5015543;28;20037;-72
2022/11/14 10:50:43;;;;;;;22.52;8.13;;;7.50;99.90;;;;;;5017988;28;20491;-72
2022/11/14 10:53:48;;;;;;;21.73;8.57;;;7.50;99.90;;;;;;5033617;28;20083;-72
2022/11/14 10:56:14;;;;;;;19.67;7.57;;;7.60;99.90;;;;;;5036582;28;20491;-72
2022/11/14 10:58:40;;;;;;;22.95;8.23;;;7.60;99.90;;;;;;5035844;28;20065;-72
2022/11/14 11:01:40;;;;;;;20.23;7.75;;;7.60;99.90;;;;;;5034238;28;20172;-72
2022/11/14 11:04:25;;;;;;;17.65;7.25;;;7.70;99.90;;;;;;5035046;28;20045;-72
2022/11/14 11:06:53;;;;;;;21.30;7.75;;;7.70;99.90;;;;;;5018776;28;20041;-72
2022/11/14 11:12:08;;;;;;;21.55;7.93;;;7.70;99.90;;;;;;5034496;28;20052;-72
2022/11/14 11:14:34;;;;;;;22.75;8.27;;;7.70;99.90;;;;;;5030356;28;20805;-72
2022/11/14 11:17:10;;;;;;;21.42;8.48;;;7.70;99.90;;;;;;5037993;28;20080;-72
2022/11/14 11:19:36;;;;;;;18.65;7.13;;;7.70;99.90;;;;;;5038800;28;21487;-72
2022/11/14 11:22:03;;;;;;;22.23;8.25;;;7.70;99.90;;;;;;5040063;28;20108;-72
2022/11/14 11:24:36;;;;;;;20.23;8.40;;;7.70;99.90;;;;;;5034495;28;20573;-72
2022/11/14 11:27:12;;;;;;;14.70;7.68;;;7.70;99.90;;;;;;5035010;28;20509;-72
2022/11/14 11:29:37;;;;;;;;;;;7.80;99.90;;;;;;5051448;28;20063;-73
2022/11/14 11:32:03;;;;;;;25.70;8.93;;;7.80;99.90;;;;;;5033057;28;19920;-72
2022/11/14 11:34:32;;;;;;;19.08;7.60;;;7.80;99.90;;;;;;5034068;28;20121;-72
2022/11/14 11:37:20;;;;;;;22.80;7.20;;;7.80;99.90;;;;;;5053203;28;20436;-72
2022/11/14 11:39:53;;;;;;;17.75;7.45;;;7.80;99.90;;;;;;5032735;28;20115;-72
2022/11/14 11:42:42;;;;;;;16.70;7.10;;;7.80;99.90;;;;;;5037731;28;20053;-72
2022/11/14 11:45:16;;;;;;;23.25;8.65;;;7.80;99.90;;;;;;5008729;28;20048;-72
2022/11/14 11:47:47;;;;;;;22.88;8.98;;;7.90;99.90;;;;;;5032018;28;20112;-72
2022/11/14 11:50:17;;;;;;;20.30;8.25;;;7.80;99.90;;;;;;5037314;28;20130;-72
2022/11/14 11:53:14;;;;;;;21.90;7.85;;;7.90;99.90;;;;;;5040296;28;20049;-72
2022/11/14 11:55:42;;;;;;;;;;;7.90;99.90;;;;;;5017202;28;20044;-72
2022/11/14 11:58:11;;;;;;;15.23;6.90;;;7.90;99.90;;;;;;5032611;28;19931;-73
2022/11/14 12:00:37;;;;;;;18.63;7.35;;;7.90;99.90;;;;;;5017248;28;20040;-72
2022/11/14 12:03:08;;;;;;;17.20;7.30;;;7.90;99.90;;;;;;5031185;28;20063;-72
2022/11/14 12:05:51;;;;;;;18.75;7.88;;;7.90;99.90;;;;;;5037668;28;20456;-72
2022/11/14 12:08:42;;;;;;;15.57;7.20;;;8.00;99.90;;;;;;5051617;28;20506;-72
2022/11/14 12:11:15;;;;;;;20.05;8.18;;;8.00;99.90;;;;;;5037308;28;20056;-72
2022/11/14 12:14:17;;;;;;;15.48;6.57;;;8.00;99.90;;;;;;5035159;28;20394;-72
2022/11/14 12:17:32;;;;;;;15.00;7.05;;;8.00;99.90;;;;;;5037865;28;20117;-72
2022/11/14 12:20:33;;;;;;;16.85;6.55;;;8.10;99.90;;;;;;5016905;28;20051;-72
2022/11/14 12:23:11;;;;;;;16.98;7.30;;;8.10;99.90;;;;;;5012629;28;20037;-72
2022/11/14 12:26:08;;;;;;;18.80;7.47;;;8.10;99.90;;;;;;5012745;28;20324;-73
2022/11/14 12:29:06;;;;;;;15.98;7.28;;;8.10;99.90;;;;;;5035956;28;20099;-72
2022/11/14 12:31:35;;;;;;;15.25;6.72;;;8.10;99.90;;;;;;5039013;28;20108;-72
2022/11/14 12:34:06;;;;;;;19.40;6.95;;;8.10;99.90;;;;;;5019322;28;20052;-72
2022/11/14 12:36:33;;;;;;;16.55;6.93;;;8.20;99.90;;;;;;5053852;28;20128;-72
2022/11/14 12:39:01;;;;;;;13.82;5.97;;;8.20;99.90;;;;;;5038858;28;20088;-72
2022/11/14 12:41:36;;;;;;;20.15;8.95;;;8.20;99.90;;;;;;5036200;28;20044;-72
2022/11/14 12:44:31;;;;;;;18.25;7.68;;;8.20;99.90;;;;;;5034774;28;20041;-72
2022/11/14 12:47:05;;;;;;;17.73;6.72;;;8.20;99.90;;;;;;5019012;28;20047;-72
2022/11/14 12:49:58;;;;;;;15.00;7.75;;;8.20;99.90;;;;;;5040032;28;20498;-72
2022/11/14 12:52:39;;;;;;;15.13;6.65;;;8.30;99.90;;;;;;5036972;28;20060;-72
2022/11/14 12:55:17;;;;;;;16.58;7.10;;;8.30;99.90;;;;;;5035048;28;20391;-72
2022/11/14 12:57:58;;;;;;;15.90;6.63;;;8.30;99.90;;;;;;5036747;28;20094;-72